Time;durP1;ratioP1;P1;durP2;ratioP2;P2;SDS_P1;SDS_P2;PMS_P1;PMS_P2;Temp;Humidity;BMP_temperature;BMP_pressure;BME280_temperature;BME280_humidity;BME280_pressure;Samples;Min_cycle;Max_cycle;Signal;HPM_P1;HPM_P2
2023/09/29 00:00:14;;;;;;;4.35;2.17;;;;;;;24.66;47.10;101578.50;5077354;28;20054;-70
2023/09/29 00:02:40;;;;;;;4.10;2.50;;;;;;;24.67;47.01;101582.00;5072178;28;20040;-70
2023/09/29 00:05:07;;;;;;;4.55;2.55;;;;;;;24.66;47.03;101583.84;5019781;28;20038;-70
2023/09/29 00:07:32;;;;;;;4.70;2.50;;;;;;;24.64;47.10;101577.88;5073529;28;20069;-71
2023/09/29 00:09:58;;;;;;;3.42;2.28;;;;;;;24.64;47.03;101575.22;5021778;28;20036;-72
2023/09/29 00:12:23;;;;;;;4.43;2.67;;;;;;;24.65;47.14;101568.88;5077214;28;20117;-71
2023/09/29 00:14:49;;;;;;;3.95;2.38;;;;;;;24.66;47.04;101575.03;5021463;28;20036;-71
2023/09/29 00:17:14;;;;;;;4.18;2.35;;;;;;;24.62;47.03;101571.94;5078614;28;20032;-70
2023/09/29 00:19:40;;;;;;;4.78;2.42;;;;;;;24.64;47.04;101585.88;5028050;28;20067;-71
2023/09/29 00:22:05;;;;;;;3.78;2.60;;;;;;;24.63;47.17;101578.91;5077175;28;20040;-71
2023/09/29 00:24:31;;;;;;;4.28;2.63;;;;;;;24.64;46.99;101577.88;5007681;28;20062;-71
2023/09/29 00:26:56;;;;;;;5.43;2.40;;;;;;;24.63;47.08;101578.91;5076145;28;20036;-70
2023/09/29 00:29:22;;;;;;;3.63;2.58;;;;;;;24.63;46.97;101578.91;5021969;28;20093;-73
2023/09/29 00:31:47;;;;;;;3.78;2.47;;;;;;;24.63;47.04;101576.25;5077696;28;20028;-72
2023/09/29 00:34:13;;;;;;;3.22;2.40;;;;;;;24.64;46.72;101575.22;5031186;28;25878;-70
2023/09/29 00:36:39;;;;;;;3.67;2.47;;;;;;;24.65;47.09;101586.69;5077945;28;20950;-71
2023/09/29 00:39:08;;;;;;;5.60;2.60;;;;;;;24.63;47.13;101578.09;5017602;28;20039;-69
2023/09/29 00:41:33;;;;;;;4.43;2.35;;;;;;;24.65;47.08;101576.03;5075286;28;20039;-69
2023/09/29 00:44:00;;;;;;;3.78;2.50;;;;;;;24.63;46.83;101576.25;5045737;28;20040;-69
2023/09/29 00:46:26;;;;;;;4.35;2.40;;;;;;;24.62;47.19;101576.44;5065940;28;20401;-69
2023/09/29 00:48:52;;;;;;;5.00;2.50;;;;;;;24.63;47.12;101573.56;5060363;28;20043;-69
2023/09/29 00:51:21;;;;;;;3.10;2.13;;;;;;;24.64;46.93;101571.72;5070283;28;20047;-70
2023/09/29 00:53:48;;;;;;;2.45;2.05;;;;;;;24.65;46.92;101560.06;5020656;28;20040;-69
2023/09/29 00:56:14;;;;;;;3.35;2.10;;;;;;;24.62;47.02;101552.47;5077009;28;20151;-69
2023/09/29 00:58:42;;;;;;;3.38;2.30;;;;;;;24.64;47.00;101548.59;5021533;28;20455;-70
2023/09/29 01:01:08;;;;;;;4.40;2.30;;;;;;;24.64;46.89;101556.59;5074023;28;20524;-69
2023/09/29 01:03:34;;;;;;;2.92;2.17;;;;;;;24.65;46.88;101558.22;5018469;28;20462;-68
2023/09/29 01:06:00;;;;;;;3.90;2.28;;;;;;;24.65;46.97;101552.06;5078144;28;20039;-68
2023/09/29 01:08:29;;;;;;;4.55;2.40;;;;;;;24.64;47.06;101545.94;5018205;28;20840;-67
2023/09/29 01:10:54;;;;;;;3.72;2.40;;;;;;;24.65;47.04;101549.41;5073190;28;20055;-70
2023/09/29 01:13:22;;;;;;;3.33;2.15;;;;;;;24.63;47.15;101548.78;5060347;28;20513;-66
2023/09/29 01:15:49;;;;;;;3.08;1.95;;;;;;;24.62;46.90;101536.50;5074622;28;20124;-66
2023/09/29 01:18:16;;;;;;;4.28;2.53;;;;;;;24.65;46.99;101539.59;5021835;28;20664;-65
2023/09/29 01:20:42;;;;;;;2.97;2.05;;;;;;;24.64;46.87;101551.25;5073370;28;20040;-66
2023/09/29 01:23:08;;;;;;;6.57;3.17;;;;;;;24.60;46.95;101543.84;5020737;28;20571;-66
2023/09/29 01:25:35;;;;;;;5.88;2.60;;;;;;;24.62;47.08;101545.31;5070195;28;20139;-66
2023/09/29 01:28:02;;;;;;;3.05;2.33;;;;;;;24.64;46.99;101545.09;5019024;28;20038;-66
2023/09/29 01:30:27;;;;;;;3.97;2.25;;;;;;;24.65;47.04;101539.59;5071564;28;20036;-67
2023/09/29 01:32:56;;;;;;;3.72;1.98;;;;;;;24.62;47.06;101547.16;5017545;28;20149;-66
2023/09/29 01:35:24;;;;;;;4.35;2.58;;;;;;;24.61;47.10;101540.16;5059660;28;20044;-67
2023/09/29 01:37:53;;;;;;;4.65;2.63;;;;;;;24.62;46.93;101545.31;5074023;28;20089;-65
2023/09/29 01:40:22;;;;;;;;;;;;;;;24.61;47.05;101524.19;5022908;28;20560;-66
2023/09/29 01:42:49;;;;;;;3.42;2.30;;;;;;;24.59;46.98;101537.69;5077314;28;19926;-66
2023/09/29 01:45:15;;;;;;;3.30;2.10;;;;;;;24.57;47.23;101534.38;5035828;28;25316;-66
2023/09/29 01:47:46;;;;;;;3.40;2.33;;;;;;;24.58;47.08;101533.38;5077117;28;20036;-66
2023/09/29 01:50:18;;;;;;;3.45;2.58;;;;;;;24.58;47.21;101530.72;5018748;28;20395;-66
2023/09/29 01:52:46;;;;;;;3.47;2.50;;;;;;;24.61;47.09;101532.19;5057918;28;20032;-66
2023/09/29 01:55:15;;;;;;;3.53;2.22;;;;;;;24.60;47.04;101544.69;5079981;28;20040;-66
2023/09/29 01:57:42;;;;;;;4.22;2.50;;;;;;;24.58;47.12;101537.88;5072878;28;20040;-66
2023/09/29 02:00:19;;;;;;;2.17;1.88;;;;;;;24.58;47.12;101528.03;5020509;28;20041;-67
2023/09/29 02:02:50;;;;;;;4.10;2.60;;;;;;;24.58;46.91;101520.06;5077137;28;20048;-67
2023/09/29 02:05:16;;;;;;;3.35;2.30;;;;;;;24.53;47.01;101509.19;5068038;27;20036;-66
2023/09/29 02:07:45;;;;;;;3.55;2.20;;;;;;;24.59;47.17;101508.38;5055854;28;20067;-66
2023/09/29 02:10:11;;;;;;;3.72;2.10;;;;;;;24.56;47.12;101516.75;5031890;28;20098;-66
2023/09/29 02:12:48;;;;;;;2.83;2.10;;;;;;;24.57;46.93;101512.25;5074901;28;20103;-67
2023/09/29 02:15:17;;;;;;;3.40;2.05;;;;;;;24.57;47.06;101504.28;5076356;28;20024;-66
2023/09/29 02:17:44;;;;;;;3.28;2.22;;;;;;;24.56;47.15;101503.44;5077496;28;20044;-66
2023/09/29 02:20:15;;;;;;;2.83;2.10;;;;;;;24.57;47.13;101502.44;5026155;28;20032;-68
2023/09/29 02:22:41;;;;;;;4.15;2.45;;;;;;;24.47;47.17;101486.00;5080315;28;20031;-66
2023/09/29 02:25:10;;;;;;;3.67;2.28;;;;;;;24.51;47.13;101497.06;5025377;28;20182;-64
2023/09/29 02:27:37;;;;;;;3.78;2.40;;;;;;;24.57;47.20;101497.09;5074780;28;20042;-66
2023/09/29 02:30:05;;;;;;;3.08;2.20;;;;;;;24.57;46.79;101486.47;5033262;28;20518;-66
2023/09/29 02:32:31;;;;;;;2.83;2.20;;;;;;;24.55;47.08;101491.16;5089640;28;20066;-66
2023/09/29 02:34:57;;;;;;;2.67;2.22;;;;;;;24.56;47.08;101492.81;5022445;28;20401;-65
2023/09/29 02:37:22;;;;;;;4.93;2.47;;;;;;;24.56;47.05;101498.13;5059146;28;20040;-66
2023/09/29 02:39:48;;;;;;;3.42;2.13;;;;;;;24.56;47.05;101499.97;5080188;28;20043;-66
2023/09/29 02:42:13;;;;;;;4.47;2.40;;;;;;;24.58;46.96;101495.28;5021040;28;26080;-66
2023/09/29 02:44:40;;;;;;;3.22;2.03;;;;;;;24.58;46.94;101487.28;5077455;28;20047;-66
2023/09/29 02:47:06;;;;;;;2.88;2.15;;;;;;;24.58;46.91;101479.28;5030477;28;20045;-66
2023/09/29 02:49:33;;;;;;;4.15;2.38;;;;;;;24.55;46.98;101474.38;5074905;28;20075;-66
2023/09/29 02:52:04;;;;;;;2.97;2.22;;;;;;;24.53;46.89;101469.22;5042751;28;20055;-67
2023/09/29 02:54:30;;;;;;;4.53;2.50;;;;;;;24.55;47.02;101461.88;5091549;28;20043;-66
2023/09/29 02:56:58;;;;;;;4.35;2.20;;;;;;;24.56;47.07;101457.38;5050171;28;20048;-66
2023/09/29 02:59:24;;;;;;;4.70;2.47;;;;;;;24.52;47.19;101448.97;5054758;28;20039;-66
2023/09/29 03:01:51;;;;;;;2.42;2.15;;;;;;;24.55;46.94;101440.56;5059577;28;20043;-66
2023/09/29 03:04:16;;;;;;;3.75;2.55;;;;;;;24.52;47.17;101440.97;5078233;28;20118;-66
2023/09/29 03:06:42;;;;;;;4.18;2.55;;;;;;;24.56;47.03;101446.72;5075535;28;20036;-66
2023/09/29 03:09:10;;;;;;;5.25;2.15;;;;;;;24.53;47.12;101433.81;5023127;28;20043;-66
2023/09/29 03:11:43;;;;;;;3.78;2.30;;;;;;;24.54;46.93;101436.25;5071531;28;20096;-66
2023/09/29 03:14:09;;;;;;;3.38;2.30;;;;;;;24.55;47.09;101429.91;5034734;28;20032;-66
2023/09/29 03:16:35;;;;;;;3.97;2.30;;;;;;;24.53;47.01;101437.28;5078212;28;20482;-66
2023/09/29 03:19:02;;;;;;;2.42;2.22;;;;;;;24.53;47.18;101439.13;5018671;28;20442;-66
2023/09/29 03:21:28;;;;;;;4.22;2.65;;;;;;;24.54;47.25;101432.78;5078406;28;20584;-66
2023/09/29 03:23:53;;;;;;;3.20;2.15;;;;;;;24.56;47.01;101422.75;5004018;28;20047;-66
2023/09/29 03:26:22;;;;;;;3.15;2.60;;;;;;;24.54;47.06;101422.94;5077543;28;20040;-66
2023/09/29 03:28:51;;;;;;;3.33;2.20;;;;;;;24.53;47.10;101413.31;5020425;28;20482;-66
2023/09/29 03:31:18;;;;;;;5.07;2.75;;;;;;;24.54;46.78;101414.97;5072573;28;20482;-66
2023/09/29 03:33:43;;;;;;;4.82;2.42;;;;;;;24.54;47.03;101428.28;5027029;28;20063;-66
2023/09/29 03:36:09;;;;;;;2.80;2.13;;;;;;;24.54;46.75;101428.28;5078668;28;20036;-66
2023/09/29 03:38:37;;;;;;;3.58;2.25;;;;;;;24.53;47.11;101410.66;5022949;28;20118;-66
2023/09/29 03:41:06;;;;;;;4.32;2.55;;;;;;;24.53;47.03;101400.00;5064731;28;20701;-66
2023/09/29 03:43:31;;;;;;;4.18;2.10;;;;;;;24.55;47.03;101399.81;5071652;28;20552;-66
2023/09/29 03:45:57;;;;;;;4.07;2.33;;;;;;;24.49;46.73;101377.47;5023848;28;20058;-66
2023/09/29 03:48:24;;;;;;;4.88;2.42;;;;;;;24.53;46.88;101385.88;5076297;28;20058;-66
2023/09/29 03:50:50;;;;;;;3.90;2.35;;;;;;;24.55;47.07;101387.31;5023394;28;20454;-66
2023/09/29 03:53:18;;;;;;;2.70;2.38;;;;;;;24.52;47.08;101381.56;5075537;28;20042;-66
2023/09/29 03:55:44;;;;;;;3.90;2.40;;;;;;;24.52;46.92;101381.56;5024331;28;20059;-66
2023/09/29 03:58:10;;;;;;;3.55;2.50;;;;;;;24.52;47.03;101381.56;5076767;28;20040;-66
2023/09/29 04:00:36;;;;;;;3.22;2.33;;;;;;;24.52;47.18;101385.06;5021580;28;20043;-66
2023/09/29 04:03:01;;;;;;;2.20;1.92;;;;;;;24.54;47.16;101379.53;5063855;28;20051;-66
2023/09/29 04:05:27;;;;;;;3.03;2.20;;;;;;;24.49;47.06;101379.31;5077158;28;20037;-66
2023/09/29 04:07:54;;;;;;;4.63;3.13;;;;;;;24.52;46.76;101376.25;5060648;28;20047;-66
2023/09/29 04:10:24;;;;;;;4.22;2.50;;;;;;;24.53;47.08;101378.72;5047611;28;20038;-65
2023/09/29 04:12:51;;;;;;;4.10;2.67;;;;;;;24.54;46.86;101380.34;5060015;28;20036;-66
2023/09/29 04:15:17;;;;;;;3.50;2.20;;;;;;;24.53;47.01;101375.22;5042117;28;20044;-66
2023/09/29 04:17:43;;;;;;;4.53;2.28;;;;;;;24.53;46.96;101365.41;5073465;28;20032;-66
2023/09/29 04:20:11;;;;;;;2.47;2.28;;;;;;;24.52;47.07;101365.59;5023399;28;20557;-66
2023/09/29 04:22:37;;;;;;;3.28;2.17;;;;;;;24.52;47.02;101371.75;5075816;28;20131;-66
2023/09/29 04:25:03;;;;;;;3.97;2.35;;;;;;;24.50;46.91;101362.31;5006802;28;20045;-69
2023/09/29 04:27:29;;;;;;;4.03;1.98;;;;;;;24.53;46.86;101360.06;5075917;28;20040;-68
2023/09/29 04:29:55;;;;;;;3.35;2.20;;;;;;;24.53;46.85;101365.41;5019898;28;20036;-69
2023/09/29 04:32:20;;;;;;;2.90;2.10;;;;;;;24.55;46.92;101365.19;5077002;28;20062;-69
2023/09/29 04:34:46;;;;;;;3.67;2.67;;;;;;;24.55;46.87;101351.88;5023595;28;20060;-68
2023/09/29 04:37:11;;;;;;;4.90;2.15;;;;;;;24.50;47.05;101360.47;5073208;28;20051;-70
2023/09/29 04:39:37;;;;;;;4.75;2.40;;;;;;;24.52;46.92;101353.09;5021517;28;20462;-71
2023/09/29 04:42:07;;;;;;;2.83;2.10;;;;;;;24.49;47.03;101356.16;5061506;28;20031;-69
2023/09/29 04:44:33;;;;;;;3.63;2.15;;;;;;;24.51;46.99;101347.97;5074142;28;20042;-71
2023/09/29 04:47:00;;;;;;;2.83;2.10;;;;;;;24.48;46.99;101351.03;5050730;28;20036;-70
2023/09/29 04:49:26;;;;;;;3.05;2.20;;;;;;;24.52;46.94;101353.09;5055508;28;20517;-71
2023/09/29 04:51:52;;;;;;;6.65;2.40;;;;;;;24.52;46.82;101353.09;5047880;28;20024;-70
2023/09/29 04:54:20;;;;;;;2.50;2.22;;;;;;;24.55;46.88;101351.88;5057655;28;20028;-69
2023/09/29 04:56:45;;;;;;;4.18;2.47;;;;;;;24.52;46.68;101337.13;5073800;28;20089;-69
2023/09/29 04:59:11;;;;;;;3.50;2.40;;;;;;;24.53;47.01;101341.44;5019184;28;20037;-69
2023/09/29 05:01:40;;;;;;;2.60;2.10;;;;;;;24.53;46.88;101338.78;5070930;28;20032;-69
2023/09/29 05:04:06;;;;;;;3.25;2.13;;;;;;;24.51;46.99;101345.31;5073389;28;20040;-67
2023/09/29 05:06:31;;;;;;;3.63;2.20;;;;;;;24.53;46.88;101337.94;5076324;28;20091;-67
2023/09/29 05:08:57;;;;;;;3.53;2.33;;;;;;;24.50;47.03;101344.50;5022414;28;20049;-67
2023/09/29 05:11:25;;;;;;;3.22;2.30;;;;;;;24.51;46.97;101346.13;5076736;28;20040;-67
2023/09/29 05:13:51;;;;;;;3.22;2.20;;;;;;;24.50;46.87;101347.16;5022183;28;20588;-67
2023/09/29 05:16:17;;;;;;;2.78;2.40;;;;;;;24.51;47.14;101342.66;5076079;28;20051;-67
2023/09/29 05:18:44;;;;;;;4.82;2.30;;;;;;;24.50;46.94;101339.19;5022950;28;20039;-67
2023/09/29 05:21:13;;;;;;;3.05;2.10;;;;;;;24.51;46.87;101332.00;5059875;28;20123;-68
2023/09/29 05:23:39;;;;;;;3.35;2.60;;;;;;;24.48;47.02;101327.91;5074895;28;20073;-69
2023/09/29 05:26:07;;;;;;;3.25;2.10;;;;;;;24.51;46.91;101327.50;5036370;28;20040;-68
2023/09/29 05:28:38;;;;;;;4.85;2.80;;;;;;;24.52;46.74;101331.00;5067849;28;20040;-68
2023/09/29 05:31:03;;;;;;;4.22;2.28;;;;;;;24.50;46.87;101333.03;5024855;28;22017;-68
2023/09/29 05:33:30;;;;;;;3.75;2.30;;;;;;;24.51;47.05;101327.50;5080839;28;20059;-68
2023/09/29 05:35:56;;;;;;;3.22;2.10;;;;;;;24.50;46.99;101320.53;5062289;28;20474;-67
2023/09/29 05:38:23;;;;;;;3.90;2.20;;;;;;;24.49;46.96;101326.88;5058864;28;20040;-68
2023/09/29 05:40:53;;;;;;;2.80;2.55;;;;;;;24.50;46.83;101328.53;5060256;28;20097;-69
2023/09/29 05:43:19;;;;;;;2.90;1.95;;;;;;;24.53;46.93;101321.97;5059706;28;20032;-69
2023/09/29 05:45:45;;;;;;;4.43;2.50;;;;;;;24.53;46.96;101336.09;5062199;28;20046;-66
2023/09/29 05:48:10;;;;;;;3.33;2.35;;;;;;;24.49;46.95;101331.38;5076505;28;20037;-66
2023/09/29 05:50:36;;;;;;;3.92;2.28;;;;;;;24.51;46.97;101334.66;5023504;28;20089;-67
2023/09/29 05:53:05;;;;;;;4.60;2.72;;;;;;;24.48;46.88;101314.59;5082676;28;20048;-67
2023/09/29 05:55:31;;;;;;;3.35;2.20;;;;;;;24.49;47.20;101310.09;5022102;28;20510;-67
2023/09/29 05:57:56;;;;;;;3.08;2.53;;;;;;;24.52;47.03;101317.69;5075013;28;20039;-67
2023/09/29 06:00:24;;;;;;;4.32;2.58;;;;;;;24.53;46.83;101321.97;5022473;28;20044;-67
2023/09/29 06:02:50;;;;;;;3.47;2.33;;;;;;;24.50;46.83;101307.22;5060452;28;20032;-66
2023/09/29 06:05:16;;;;;;;4.40;2.50;;;;;;;24.48;47.10;101303.94;5077559;28;20498;-67
2023/09/29 06:07:41;;;;;;;4.20;2.30;;;;;;;24.51;46.75;101306.22;5026583;28;20520;-66
2023/09/29 06:10:07;;;;;;;3.55;2.40;;;;;;;24.48;47.06;101295.13;5082534;28;20047;-66
2023/09/29 06:12:33;;;;;;;4.53;2.53;;;;;;;24.49;46.99;101299.44;5026556;28;20048;-66
2023/09/29 06:14:59;;;;;;;3.42;2.42;;;;;;;24.50;46.94;101299.25;5080116;28;20419;-66
2023/09/29 06:17:25;;;;;;;6.32;2.35;;;;;;;24.49;46.95;101297.59;5025631;28;20744;-66
2023/09/29 06:19:51;;;;;;;2.85;2.25;;;;;;;24.49;46.92;101297.59;5078080;28;20020;-66
2023/09/29 06:22:19;;;;;;;3.60;2.55;;;;;;;24.51;46.95;101300.88;5027593;28;21535;-66
2023/09/29 06:24:45;;;;;;;4.15;2.60;;;;;;;24.50;46.84;101291.25;5076929;28;20735;-66
2023/09/29 06:27:11;;;;;;;2.65;2.05;;;;;;;24.48;47.04;101295.97;5065019;28;20039;-66
2023/09/29 06:29:39;;;;;;;4.28;2.67;;;;;;;24.51;47.01;101300.88;5074749;28;20032;-66
2023/09/29 06:32:06;;;;;;;2.58;2.17;;;;;;;24.49;46.74;101305.59;5020669;28;20039;-66
2023/09/29 06:34:32;;;;;;;3.22;2.05;;;;;;;24.48;46.89;101293.31;5074271;28;20083;-66
2023/09/29 06:36:57;;;;;;;2.97;2.22;;;;;;;24.50;46.92;101301.09;5025744;28;20040;-67
2023/09/29 06:39:23;;;;;;;4.43;2.30;;;;;;;24.49;47.09;101297.59;5078254;28;20048;-66
2023/09/29 06:41:48;;;;;;;3.03;2.22;;;;;;;24.51;46.86;101290.22;5027474;28;20051;-64
2023/09/29 06:44:14;;;;;;;2.88;2.08;;;;;;;24.51;47.05;101303.53;5065542;28;20422;-66
2023/09/29 06:46:39;;;;;;;3.08;2.40;;;;;;;24.51;47.11;101294.75;5078988;28;20040;-66
2023/09/29 06:49:05;;;;;;;3.92;2.35;;;;;;;24.53;46.85;101296.16;5021566;28;20115;-66
2023/09/29 06:51:30;;;;;;;4.07;2.85;;;;;;;24.52;46.86;101299.84;5076029;28;20048;-66
2023/09/29 06:53:56;;;;;;;3.38;2.42;;;;;;;24.51;46.99;101289.41;5029049;28;20036;-66
2023/09/29 06:56:22;;;;;;;3.40;2.22;;;;;;;24.51;46.97;101292.06;5074756;28;20046;-66
2023/09/29 06:58:47;;;;;;;2.88;2.15;;;;;;;24.52;46.93;101289.22;5024483;28;20043;-66
2023/09/29 07:01:13;;;;;;;3.75;2.92;;;;;;;24.50;46.95;101299.25;5061525;28;20502;-66
2023/09/29 07:03:39;;;;;;;3.85;2.53;;;;;;;24.48;46.92;101298.63;5075343;28;20127;-66
2023/09/29 07:06:05;;;;;;;3.65;2.60;;;;;;;24.51;46.70;101305.38;5037882;28;20512;-66
2023/09/29 07:08:31;;;;;;;2.67;2.20;;;;;;;24.41;46.99;101293.25;5063152;28;20036;-66
2023/09/29 07:10:58;;;;;;;3.53;2.40;;;;;;;24.51;47.01;101314.19;5031503;28;20505;-66
2023/09/29 07:13:24;;;;;;;3.40;2.38;;;;;;;24.52;47.00;101315.00;5074065;28;20068;-66
2023/09/29 07:15:51;;;;;;;3.63;2.20;;;;;;;24.51;46.94;101321.34;5079234;28;20177;-66
2023/09/29 07:18:17;;;;;;;3.85;2.55;;;;;;;24.52;46.93;101323.81;5033566;28;20052;-66
2023/09/29 07:20:43;;;;;;;3.60;2.28;;;;;;;24.49;46.94;101313.56;5064115;28;20087;-66
2023/09/29 07:23:09;;;;;;;3.40;2.40;;;;;;;24.49;47.02;101310.09;5081658;28;20119;-67
2023/09/29 07:25:37;;;;;;;2.75;2.25;;;;;;;24.50;47.09;101314.41;5077772;28;20070;-66
2023/09/29 07:28:05;;;;;;;3.87;2.10;;;;;;;24.53;46.95;101321.97;5024936;28;20044;-67
2023/09/29 07:30:30;;;;;;;2.53;2.20;;;;;;;24.52;46.87;101317.69;5075623;28;20627;-65
2023/09/29 07:32:56;;;;;;;4.10;2.50;;;;;;;24.51;46.99;101324.03;5024855;28;20035;-66
2023/09/29 07:35:21;;;;;;;3.00;2.20;;;;;;;24.52;46.83;101317.69;5079512;28;20036;-66
2023/09/29 07:37:47;;;;;;;4.30;3.28;;;;;;;24.51;47.11;101314.19;5023465;28;20052;-65
2023/09/29 07:40:12;;;;;;;2.90;2.22;;;;;;;24.49;47.19;101324.22;5077051;28;20063;-66
2023/09/29 07:42:38;;;;;;;4.43;2.42;;;;;;;24.48;47.12;101317.25;5008784;28;20039;-66
2023/09/29 07:45:04;;;;;;;3.03;2.25;;;;;;;24.51;47.12;101326.69;5072779;28;20044;-66
2023/09/29 07:47:30;;;;;;;3.60;2.00;;;;;;;24.53;47.15;101327.31;5024239;28;20637;-66
2023/09/29 07:49:55;;;;;;;3.17;2.30;;;;;;;24.52;47.31;101329.16;5069929;28;20036;-66
2023/09/29 07:52:27;;;;;;;3.28;2.70;;;;;;;24.49;47.20;101329.53;5024418;28;21261;-66
2023/09/29 07:54:56;;;;;;;4.05;2.40;;;;;;;24.51;47.11;101326.69;5071504;28;20039;-66
2023/09/29 07:57:22;;;;;;;3.72;2.70;;;;;;;24.52;47.17;101331.81;5020124;28;20918;-65
2023/09/29 07:59:47;;;;;;;3.35;2.55;;;;;;;24.51;47.04;101327.50;5074942;28;20040;-66
2023/09/29 08:02:13;;;;;;;3.22;2.40;;;;;;;24.51;47.20;101322.19;5027601;28;21700;-66
2023/09/29 08:04:38;;;;;;;3.75;2.08;;;;;;;24.51;47.21;101332.81;5061417;28;20043;-67
2023/09/29 08:07:04;;;;;;;3.92;2.42;;;;;;;24.53;47.16;101325.47;5083492;28;20513;-67
2023/09/29 08:09:30;;;;;;;4.05;2.22;;;;;;;24.54;46.98;101329.75;5023437;28;20101;-67
2023/09/29 08:11:57;;;;;;;3.55;2.70;;;;;;;24.51;47.28;101316.03;5075884;28;20043;-68
2023/09/29 08:14:22;;;;;;;3.95;2.30;;;;;;;24.54;47.21;101324.44;5030267;28;20174;-67
2023/09/29 08:16:48;;;;;;;4.00;2.38;;;;;;;24.54;47.32;101329.75;5080981;28;20052;-68
2023/09/29 08:19:13;;;;;;;2.80;2.20;;;;;;;24.50;47.08;101323.19;5022815;28;20040;-68
2023/09/29 08:21:39;;;;;;;3.88;2.22;;;;;;;24.55;47.31;101331.41;5071171;28;20032;-68
2023/09/29 08:24:08;;;;;;;2.53;2.33;;;;;;;24.53;47.22;101336.09;5007203;28;20040;-67
2023/09/29 08:26:34;;;;;;;4.97;2.40;;;;;;;24.58;47.22;101338.16;5074444;28;20131;-68
2023/09/29 08:29:01;;;;;;;3.42;2.40;;;;;;;24.57;47.21;101333.88;5046408;28;20675;-68
2023/09/29 08:31:27;;;;;;;3.60;2.30;;;;;;;24.58;47.20;101327.53;5054028;28;20051;-68
2023/09/29 08:33:53;;;;;;;3.17;2.30;;;;;;;24.59;47.21;101329.16;5061000;28;20048;-68
2023/09/29 08:36:19;;;;;;;4.00;2.33;;;;;;;24.60;47.16;101328.16;5055618;28;20051;-68
2023/09/29 08:38:45;;;;;;;5.32;2.63;;;;;;;24.60;47.31;101330.84;5049306;28;20694;-67
2023/09/29 08:41:14;;;;;;;2.45;2.20;;;;;;;24.61;47.05;101319.97;5048122;28;20523;-67
2023/09/29 08:43:40;;;;;;;3.88;2.35;;;;;;;24.60;47.35;101322.84;5071971;28;20054;-67
2023/09/29 08:46:09;;;;;;;3.28;2.20;;;;;;;24.59;47.25;101321.16;5002883;28;20040;-67
2023/09/29 08:48:35;;;;;;;3.83;2.47;;;;;;;24.64;47.16;101330.22;5071217;28;20036;-67
2023/09/29 08:51:03;;;;;;;3.08;2.47;;;;;;;24.63;47.04;101330.44;5025355;28;20040;-67
2023/09/29 08:53:30;;;;;;;3.63;2.40;;;;;;;24.67;47.16;101324.50;5068324;28;20485;-67
2023/09/29 08:56:00;;;;;;;3.17;2.17;;;;;;;24.67;47.04;101329.81;5026592;28;20746;-68
2023/09/29 08:58:28;;;;;;;3.40;2.60;;;;;;;24.63;46.96;101314.44;5073670;28;20518;-69
2023/09/29 09:00:54;;;;;;;3.80;2.40;;;;;;;24.69;46.99;101326.97;5024991;28;20647;-68
2023/09/29 09:03:20;;;;;;;4.45;2.45;;;;;;;24.67;47.06;101321.84;5070833;28;20044;-68
2023/09/29 09:05:47;;;;;;;2.50;2.10;;;;;;;24.69;47.05;101327.78;5027306;28;20052;-68
2023/09/29 09:08:12;;;;;;;3.35;2.40;;;;;;;24.70;47.21;101334.75;4994572;28;20849;-68
2023/09/29 09:10:38;;;;;;;3.55;2.17;;;;;;;24.72;47.19;101331.88;5079939;28;20036;-68
2023/09/29 09:13:07;;;;;;;3.50;2.53;;;;;;;24.72;47.08;101329.22;5028856;28;20048;-68
2023/09/29 09:15:32;;;;;;;3.40;2.25;;;;;;;24.70;47.34;101331.25;5077470;28;20035;-68
2023/09/29 09:17:58;;;;;;;3.63;2.42;;;;;;;24.70;47.29;101337.41;5057186;28;20055;-68
2023/09/29 09:20:25;;;;;;;4.38;2.30;;;;;;;24.69;47.43;101333.09;5052962;28;20036;-68
2023/09/29 09:22:59;;;;;;;3.45;2.10;;;;;;;24.69;47.29;101341.09;5062775;28;20044;-68
2023/09/29 09:25:42;;;;;;;2.85;2.30;;;;;;;24.68;47.02;101339.44;5064883;28;20040;-68
2023/09/29 09:28:20;;;;;;;3.67;2.63;;;;;;;24.68;47.21;101338.63;5028140;28;20047;-67
2023/09/29 09:30:46;;;;;;;2.33;2.03;;;;;;;24.69;47.51;101340.28;5077549;28;20031;-70
2023/09/29 09:33:21;;;;;;;3.83;2.42;;;;;;;24.74;47.16;101342.34;5061411;28;20027;-67
2023/09/29 09:35:50;;;;;;;5.32;2.53;;;;;;;24.75;47.26;101343.97;5077451;28;20039;-67
2023/09/29 09:38:16;;;;;;;3.03;2.40;;;;;;;24.72;47.34;101345.19;5027480;28;20036;-67
2023/09/29 09:40:45;;;;;;;4.10;2.55;;;;;;;24.72;47.33;101339.88;5075571;28;20043;-67
2023/09/29 09:43:11;;;;;;;3.35;2.53;;;;;;;24.76;47.46;101342.94;5028619;28;20040;-68
2023/09/29 09:45:43;;;;;;;5.05;2.35;;;;;;;24.73;47.82;101343.34;5075772;28;20059;-67
2023/09/29 09:48:10;;;;;;;3.00;2.08;;;;;;;24.73;47.69;101344.16;5025057;28;20560;-67
2023/09/29 09:50:40;;;;;;;2.80;2.10;;;;;;;24.73;47.71;101341.50;5068118;28;20048;-68
2023/09/29 09:53:11;;;;;;;4.63;2.33;;;;;;;24.74;47.54;101342.34;5034075;28;20113;-67
2023/09/29 09:55:55;;;;;;;2.95;2.20;;;;;;;24.77;47.47;101334.75;5067188;28;20036;-67
2023/09/29 09:58:22;;;;;;;5.57;2.38;;;;;;;24.74;47.65;101335.16;5074773;28;20056;-68
2023/09/29 10:00:55;;;;;;;3.22;2.28;;;;;;;24.75;47.68;101334.13;5026737;28;20036;-67
2023/09/29 10:03:22;;;;;;;4.15;2.53;;;;;;;24.76;47.51;101329.63;5077454;28;20470;-67
2023/09/29 10:05:52;;;;;;;3.08;2.10;;;;;;;24.77;47.60;101337.41;5025489;28;20083;-67
2023/09/29 10:08:30;;;;;;;4.05;2.50;;;;;;;24.78;47.46;101336.44;5077599;28;20052;-67
2023/09/29 10:11:14;;;;;;;2.55;2.20;;;;;;;24.81;47.39;101341.34;5023857;28;20147;-67
2023/09/29 10:13:44;;;;;;;3.08;2.13;;;;;;;24.77;47.78;101344.59;5071940;28;20032;-68
2023/09/29 10:16:21;;;;;;;3.25;1.92;;;;;;;24.79;47.73;101346.06;5029899;28;20407;-66
2023/09/29 10:19:05;;;;;;;4.22;2.33;;;;;;;24.76;47.43;101342.94;5078263;28;20069;-66
2023/09/29 10:21:45;;;;;;;3.13;2.30;;;;;;;24.79;47.42;101345.25;5063724;28;20036;-68
2023/09/29 10:24:13;;;;;;;3.97;1.92;;;;;;;24.79;47.55;101353.22;5078807;28;20032;-67
2023/09/29 10:26:43;;;;;;;3.10;2.28;;;;;;;24.77;47.43;101339.25;5036788;28;20482;-67
2023/09/29 10:29:24;;;;;;;4.07;2.35;;;;;;;24.77;47.57;101345.41;5079501;28;20897;-67
2023/09/29 10:31:49;;;;;;;4.18;2.30;;;;;;;24.79;47.58;101351.38;5022049;28;21789;-67
2023/09/29 10:34:22;;;;;;;2.67;2.17;;;;;;;24.79;47.43;101351.38;5077389;28;20040;-68
2023/09/29 10:36:56;;;;;;;4.43;2.47;;;;;;;24.79;47.37;101350.56;5025464;28;20048;-67
2023/09/29 10:39:26;;;;;;;4.43;2.78;;;;;;;24.79;47.66;101351.38;5078572;28;20091;-67
2023/09/29 10:41:59;;;;;;;;;;;;;;;24.78;47.58;101349.75;5025853;28;20042;-67
2023/09/29 10:44:28;;;;;;;4.25;2.65;;;;;;;24.80;47.55;101357.53;5061002;28;20378;-67
2023/09/29 10:46:54;;;;;;;2.97;2.25;;;;;;;24.77;47.58;101350.72;5077422;28;20044;-67
2023/09/29 10:49:29;;;;;;;3.17;2.50;;;;;;;24.80;47.61;101349.53;5025919;28;20074;-67
2023/09/29 10:51:56;;;;;;;3.90;2.05;;;;;;;24.77;47.51;101348.06;5079295;28;20036;-66
2023/09/29 10:54:23;;;;;;;3.08;2.15;;;;;;;24.81;47.63;101348.53;5024820;28;20883;-67
2023/09/29 10:56:49;;;;;;;2.97;2.33;;;;;;;24.76;47.61;101350.94;5074434;28;20731;-67
2023/09/29 10:59:14;;;;;;;5.30;2.67;;;;;;;24.80;47.70;101352.19;5025882;28;20135;-67
2023/09/29 11:01:44;;;;;;;4.03;2.50;;;;;;;24.75;47.62;101350.13;5075468;28;20634;-67
2023/09/29 11:04:10;;;;;;;3.05;2.58;;;;;;;24.79;47.62;101356.72;5024924;28;20119;-67
2023/09/29 11:06:46;;;;;;;5.00;2.60;;;;;;;24.79;47.73;101355.88;5074958;28;20044;-67
2023/09/29 11:09:19;;;;;;;3.67;2.33;;;;;;;24.81;47.63;101359.16;5073434;28;20043;-67
2023/09/29 11:11:45;;;;;;;4.78;2.30;;;;;;;24.77;47.50;101364.06;5064209;28;20381;-67
2023/09/29 11:14:12;;;;;;;3.92;2.42;;;;;;;24.79;47.62;101362.03;5044174;28;20063;-67
2023/09/29 11:16:38;;;;;;;5.30;2.42;;;;;;;24.80;47.79;101368.19;5081899;28;20482;-67
2023/09/29 11:19:12;;;;;;;5.10;2.53;;;;;;;24.79;47.72;101366.53;5020088;28;20050;-67
2023/09/29 11:21:39;;;;;;;2.65;2.20;;;;;;;24.81;47.48;101367.16;5073834;28;20039;-67
2023/09/29 11:24:08;;;;;;;3.47;2.15;;;;;;;24.76;47.93;101365.06;5019553;28;20032;-67
2023/09/29 11:26:37;;;;;;;2.92;2.33;;;;;;;24.78;47.66;101371.06;5065070;28;20438;-66